Time;durP1;ratioP1;P1;durP2;ratioP2;P2;SDS_P1;SDS_P2;PMS_P1;PMS_P2;Temp;Humidity;BMP_temperature;BMP_pressure;BME280_temperature;BME280_humidity;BME280_pressure;Samples;Min_cycle;Max_cycle;Signal;HPM_P1;HPM_P2
2023/11/12 06:51:50;;;;;;;5.53;3.78;;;;;;;4.20;74.53;97698.53;5026867;27;103985;-67
2023/11/12 06:54:18;;;;;;;4.97;2.90;;;;;;;4.18;73.86;97703.09;5025959;27;103796;-67
2023/11/12 06:56:46;;;;;;;5.88;2.90;;;;;;;4.24;73.81;97705.91;5034119;27;103238;-65
2023/11/12 06:59:14;;;;;;;5.88;3.80;;;;;;;4.27;73.87;97710.03;5034145;27;102530;-66
2023/11/12 07:01:42;;;;;;;5.05;3.58;;;;;;;4.14;74.67;97711.25;5030411;27;104113;-66
2023/11/12 07:04:10;;;;;;;6.40;4.68;;;;;;;4.17;74.57;97710.13;5033501;27;104332;-66
2023/11/12 07:06:38;;;;;;;5.82;3.92;;;;;;;4.15;74.40;97717.31;5012628;27;103229;-65
2023/11/12 07:09:08;;;;;;;6.38;4.25;;;;;;;4.17;74.66;97718.00;5038087;27;102954;-64
2023/11/12 07:11:36;;;;;;;7.25;4.80;;;;;;;4.22;74.42;97717.53;5036297;27;102947;-64
2023/11/12 07:14:05;;;;;;;7.28;4.00;;;;;;;4.27;74.96;97726.59;5036731;27;104190;-66
2023/11/12 07:16:33;;;;;;;7.32;3.45;;;;;;;4.37;74.17;97726.50;5033903;27;103301;-65
2023/11/12 07:19:01;;;;;;;5.07;3.50;;;;;;;4.45;74.23;97730.97;5016916;27;102678;-64
2023/11/12 07:21:31;;;;;;;4.95;3.22;;;;;;;4.53;74.02;97730.22;5036476;27;102743;-67
2023/11/12 07:24:00;;;;;;;6.13;3.60;;;;;;;4.57;73.57;97727.16;5013890;27;103691;-67
2023/11/12 07:26:29;;;;;;;8.60;5.38;;;;;;;4.67;73.03;97731.47;5024772;27;103071;-67
2023/11/12 07:28:57;;;;;;;7.75;4.30;;;;;;;4.60;73.27;97741.75;5028224;27;102928;-67
2023/11/12 07:31:25;;;;;;;5.60;3.80;;;;;;;4.61;73.43;97744.22;5031806;27;103663;-67
2023/11/12 07:33:53;;;;;;;6.68;4.90;;;;;;;4.68;73.17;97739.19;5015786;27;103240;-67
2023/11/12 07:36:21;;;;;;;7.13;5.15;;;;;;;4.55;73.60;97733.53;5035449;27;103127;-67
2023/11/12 07:38:50;;;;;;;6.63;5.20;;;;;;;4.50;74.07;97733.16;5034536;27;104103;-67
2023/11/12 07:41:18;;;;;;;8.60;5.55;;;;;;;4.37;74.94;97730.94;5033853;27;102991;-67
2023/11/12 08:19:10;;;;;;;5.27;3.73;;;;;;;5.04;72.48;97752.16;5032738;27;103235;-66
2023/11/12 08:21:38;;;;;;;5.28;3.22;;;;;;;5.11;72.45;97747.94;5034529;27;103196;-67
2023/11/12 08:24:07;;;;;;;6.32;3.67;;;;;;;5.15;72.32;97751.09;5028244;27;102685;-67
2023/11/12 08:26:38;;;;;;;5.55;3.88;;;;;;;5.17;72.15;97743.06;5030264;27;102726;-67
2023/11/12 08:29:07;;;;;;;6.53;3.92;;;;;;;5.19;72.03;97751.56;5032322;27;103295;-67
2023/11/12 08:31:36;;;;;;;6.60;3.83;;;;;;;5.21;71.56;97750.44;5032792;27;103158;-67
2023/11/12 08:34:04;;;;;;;4.70;3.22;;;;;;;5.26;71.27;97748.16;5033502;27;102653;-65
2023/11/12 08:36:34;;;;;;;7.93;4.00;;;;;;;5.38;71.50;97740.00;5017187;27;103810;-65
2023/11/12 08:39:04;;;;;;;6.47;4.07;;;;;;;5.39;71.10;97746.91;5020372;27;103602;-67
2023/11/12 08:41:33;;;;;;;5.82;3.58;;;;;;;5.40;70.80;97741.50;5021912;27;102621;-66
2023/11/12 08:44:04;;;;;;;4.97;3.42;;;;;;;5.59;71.81;97752.72;5032686;27;102826;-65
2023/11/12 08:46:34;;;;;;;4.25;2.72;;;;;;;5.66;71.22;97737.97;5018800;27;103087;-67
2023/11/12 08:49:06;;;;;;;5.95;3.58;;;;;;;5.80;68.77;97745.25;5013314;27;104391;-67
2023/11/12 08:51:35;;;;;;;7.65;3.40;;;;;;;5.88;69.91;97746.22;5039333;27;103287;-65
2023/11/12 08:54:08;;;;;;;7.00;3.55;;;;;;;6.00;69.07;97752.88;5029914;27;102675;-66
2023/11/12 10:07:28;;;;;;;4.57;3.03;;;;;;;6.95;66.15;97789.16;5032590;27;102917;-64
2023/11/12 10:09:56;;;;;;;4.57;2.78;;;;;;;7.07;65.07;97794.09;5025724;27;103173;-68
2023/11/12 10:12:24;;;;;;;5.10;3.53;;;;;;;7.08;64.59;97790.47;5030613;27;103094;-66
2023/11/12 10:15:02;;;;;;;5.50;3.42;;;;;;;7.10;65.28;97784.03;5031065;27;102539;-66
2023/11/12 10:17:30;;;;;;;5.32;3.72;;;;;;;7.10;65.64;97784.03;5029441;27;102830;-64
2023/11/12 10:20:00;;;;;;;4.88;2.78;;;;;;;7.34;65.32;97778.88;5028381;27;103252;-64
2023/11/12 10:22:42;;;;;;;4.70;3.05;;;;;;;7.33;64.77;97772.78;5037095;27;103300;-65
2023/11/12 10:25:10;;;;;;;5.00;3.22;;;;;;;7.20;64.84;97772.50;5033165;27;102614;-67
2023/11/12 10:27:52;;;;;;;5.03;3.35;;;;;;;7.19;64.38;97779.59;5014022;27;104050;-65
2023/11/12 10:30:22;;;;;;;6.90;3.10;;;;;;;7.16;64.90;97771.19;5032339;27;104061;-65
2023/11/12 10:32:54;;;;;;;5.82;3.50;;;;;;;7.14;65.09;97774.00;5027543;27;103383;-64
2023/11/12 10:35:28;;;;;;;4.72;2.95;;;;;;;7.26;63.87;97767.38;5010119;27;102605;-64
2023/11/12 10:38:01;;;;;;;6.13;3.03;;;;;;;7.30;64.19;97767.84;5031134;27;103995;-65
2023/11/12 10:40:31;;;;;;;4.75;2.80;;;;;;;7.30;64.33;97762.59;5037896;27;103209;-64
2023/11/12 10:43:07;;;;;;;5.57;3.47;;;;;;;7.38;63.50;97759.91;5038646;27;103303;-64
2023/11/12 10:45:36;;;;;;;5.18;3.58;;;;;;;7.44;63.68;97767.16;5037712;27;102966;-65
2023/11/12 10:48:05;;;;;;;5.45;3.90;;;;;;;7.41;63.31;97770.09;5041487;27;102609;-66
2023/11/12 10:50:37;;;;;;;4.47;3.10;;;;;;;7.45;63.82;97763.53;5038644;27;103393;-65
2023/11/12 10:53:07;;;;;;;4.72;2.70;;;;;;;7.46;64.10;97765.16;5019609;27;103384;-64
2023/11/12 10:55:39;;;;;;;7.05;2.92;;;;;;;7.47;63.51;97758.06;5033783;27;103363;-64
2023/11/12 10:58:13;;;;;;;5.95;3.40;;;;;;;7.46;63.43;97767.78;5034367;27;103456;-66
2023/11/12 11:00:41;;;;;;;6.93;3.03;;;;;;;7.57;63.31;97763.13;5030842;27;103277;-64
2023/11/12 11:03:11;;;;;;;3.70;2.40;;;;;;;7.59;63.12;97761.97;5022483;27;102952;-64
2023/11/12 11:05:43;;;;;;;3.63;2.67;;;;;;;7.57;63.96;97760.50;5037014;27;102660;-67
2023/11/12 11:08:20;;;;;;;5.32;2.67;;;;;;;7.69;62.80;97759.13;5035606;27;104357;-66
2023/11/12 11:10:49;;;;;;;6.70;3.00;;;;;;;7.68;63.56;97765.38;5033120;27;103415;-65
2023/11/12 11:13:17;;;;;;;5.80;3.47;;;;;;;7.68;63.37;97754.84;5039143;27;103251;-67
2023/11/12 11:15:52;;;;;;;7.82;3.03;;;;;;;7.72;63.14;97766.69;5033552;27;102660;-66
2023/11/12 11:18:50;;;;;;;5.78;2.97;;;;;;;7.68;62.36;97749.56;5040685;27;103056;-66
2023/11/12 11:21:19;;;;;;;5.03;2.90;;;;;;;7.77;63.71;97753.00;5032442;27;104022;-66
2023/11/12 11:23:55;;;;;;;5.13;2.90;;;;;;;7.74;62.85;97754.16;5011886;27;103417;-64
2023/11/12 11:26:38;;;;;;;4.57;2.90;;;;;;;7.82;63.27;97752.47;5030426;27;102721;-64
2023/11/12 11:29:13;;;;;;;4.78;3.05;;;;;;;7.86;62.91;97753.75;5021739;27;103155;-65
2023/11/12 11:32:21;;;;;;;6.18;3.40;;;;;;;7.87;62.99;97747.50;5037442;27;103274;-67
2023/11/12 11:34:59;;;;;;;5.97;3.10;;;;;;;7.85;63.09;97754.75;5021409;27;104090;-66
2023/11/12 11:38:01;;;;;;;6.90;3.22;;;;;;;7.97;62.80;97745.44;5020921;27;102606;-66
2023/11/12 11:40:31;;;;;;;5.13;2.97;;;;;;;8.03;63.51;97739.50;5034111;27;102778;-67
2023/11/12 11:43:33;;;;;;;4.47;2.72;;;;;;;8.04;62.62;97738.47;5036237;27;103348;-65
2023/11/12 11:46:09;;;;;;;5.35;3.33;;;;;;;7.94;62.46;97737.91;5012962;27;103439;-66
2023/11/12 11:48:37;;;;;;;3.97;2.50;;;;;;;7.86;62.91;97728.22;5030489;27;102972;-64
2023/11/12 11:51:45;;;;;;;5.20;2.78;;;;;;;7.70;61.73;97747.56;5026538;27;104217;-67
2023/11/12 11:54:15;;;;;;;6.30;2.58;;;;;;;7.64;62.35;97735.09;4995602;27;103215;-65
2023/11/12 11:56:44;;;;;;;5.55;3.03;;;;;;;7.71;62.75;97741.31;5036604;27;103337;-67
2023/11/12 11:59:13;;;;;;;5.30;2.60;;;;;;;7.80;62.20;97742.91;5034386;27;102988;-65
2023/11/12 12:01:47;;;;;;;5.10;2.38;;;;;;;7.76;61.60;97735.53;5010615;27;102808;-65
2023/11/12 12:04:16;;;;;;;5.18;2.83;;;;;;;7.84;62.03;97738.13;5035689;27;103285;-67
2023/11/12 12:06:45;;;;;;;6.28;3.00;;;;;;;7.85;61.88;97739.75;5036244;27;103340;-65
2023/11/12 12:09:17;;;;;;;4.05;2.45;;;;;;;7.90;61.56;97732.16;5039491;27;102576;-67
2023/11/12 12:11:51;;;;;;;4.95;2.42;;;;;;;7.99;61.80;97730.28;5034943;27;103773;-66
2023/11/12 12:14:24;;;;;;;4.03;2.33;;;;;;;8.02;62.26;97729.94;5010879;27;104660;-66
2023/11/12 12:55:15;;;;;;;3.90;2.03;;;;;;;8.57;60.58;97732.50;5017820;27;102724;-66
2023/11/12 12:57:58;;;;;;;3.45;2.15;;;;;;;8.56;60.88;97730.84;5030773;27;104003;-65
2023/11/12 13:00:38;;;;;;;3.88;2.33;;;;;;;8.40;60.49;97727.31;5012425;27;103053;-65
2023/11/12 13:03:20;;;;;;;3.80;2.20;;;;;;;8.53;61.08;97720.63;5032909;27;103013;-66
2023/11/12 13:05:51;;;;;;;5.07;2.72;;;;;;;8.52;60.70;97721.66;5012146;27;102823;-66
2023/11/12 13:08:21;;;;;;;4.03;2.30;;;;;;;8.56;60.60;97721.09;5028185;27;102609;-66
2023/11/12 13:10:54;;;;;;;4.72;2.90;;;;;;;8.61;60.52;97717.94;5032139;27;102917;-65
2023/11/12 13:13:24;;;;;;;4.00;2.00;;;;;;;8.66;60.84;97710.31;5034938;27;103218;-67
2023/11/12 13:16:17;;;;;;;4.13;2.70;;;;;;;8.43;60.25;97700.56;5023247;27;102974;-65
2023/11/12 13:18:53;;;;;;;4.10;2.50;;;;;;;8.54;60.76;97706.44;5015983;27;102838;-66
2023/11/12 13:21:23;;;;;;;4.25;2.28;;;;;;;8.56;60.50;97715.81;5013707;27;104003;-68
2023/11/12 13:23:52;;;;;;;4.10;2.28;;;;;;;8.34;60.62;97728.03;5035132;27;103149;-65
2023/11/12 13:26:22;;;;;;;4.65;2.60;;;;;;;8.51;60.90;97728.75;5030056;27;102749;-65
2023/11/12 13:28:52;;;;;;;5.38;2.78;;;;;;;8.46;60.81;97724.00;5029795;27;102738;-66
2023/11/12 13:31:23;;;;;;;3.75;2.47;;;;;;;8.53;60.25;97725.91;5024759;27;104510;-66
2023/11/12 13:33:51;;;;;;;3.13;2.08;;;;;;;8.60;60.47;97724.22;5032803;27;103221;-65
2023/11/12 13:41:03;;;;;;;4.35;2.30;;;;;;;8.60;61.41;97732.13;5033502;27;104048;-66
2023/11/12 13:43:33;;;;;;;4.70;2.92;;;;;;;8.48;60.40;97733.56;5029282;27;103669;-66
2023/11/12 13:46:01;;;;;;;4.70;2.90;;;;;;;8.37;61.40;97732.97;5011876;27;103248;-66
2023/11/12 13:48:30;;;;;;;6.75;3.00;;;;;;;8.42;60.66;97738.53;5017608;27;102651;-66
2023/11/12 13:51:08;;;;;;;4.00;2.45;;;;;;;8.41;61.78;97734.25;5025942;27;103262;-66
2023/11/12 13:53:39;;;;;;;3.35;2.25;;;;;;;8.46;61.13;97731.94;5024114;27;103186;-66
2023/11/12 13:56:09;;;;;;;4.78;2.47;;;;;;;8.48;61.58;97730.94;5027415;27;103188;-67
2023/11/12 13:58:39;;;;;;;4.20;2.65;;;;;;;8.42;62.19;97730.63;5021300;27;102554;-68
2023/11/12 14:01:07;;;;;;;4.03;2.33;;;;;;;8.41;62.42;97718.41;5023648;27;103959;-68
2023/11/12 14:03:35;;;;;;;3.97;2.17;;;;;;;8.35;62.03;97713.03;5025343;27;103757;-68
2023/11/12 14:06:04;;;;;;;3.45;2.05;;;;;;;8.39;62.65;97709.84;5011748;27;103287;-68
2023/11/12 14:08:32;;;;;;;4.15;2.75;;;;;;;8.36;62.56;97720.78;5009753;27;103147;-68
2023/11/12 14:11:01;;;;;;;4.30;2.08;;;;;;;8.32;62.26;97716.00;5027968;27;103781;-68
2023/11/12 14:13:31;;;;;;;4.45;2.47;;;;;;;8.19;61.65;97725.34;5029405;27;104337;-68
2023/11/12 14:16:00;;;;;;;3.80;2.30;;;;;;;8.24;62.26;97716.91;5027078;27;103368;-65
2023/11/12 14:18:31;;;;;;;2.80;1.98;;;;;;;7.91;62.27;97722.41;5028702;27;102688;-65
2023/11/12 14:20:59;;;;;;;3.75;2.10;;;;;;;8.00;62.63;97716.09;5008653;27;102770;-68
2023/11/12 14:23:27;;;;;;;6.38;2.38;;;;;;;7.94;63.31;97714.97;5029902;27;104483;-65
2023/11/12 14:25:55;;;;;;;3.88;2.15;;;;;;;7.94;63.23;97709.72;5008333;27;104354;-66
2023/11/12 14:28:26;;;;;;;4.20;2.15;;;;;;;7.87;62.93;97708.75;5025994;27;102655;-67
2023/11/12 14:30:54;;;;;;;4.20;2.17;;;;;;;7.88;63.85;97717.50;5012052;27;103122;-68
2023/11/12 14:33:24;;;;;;;4.38;2.22;;;;;;;7.88;64.93;97713.03;5025281;27;103248;-68
2023/11/12 14:35:52;;;;;;;4.03;2.30;;;;;;;7.76;64.88;97712.63;5031537;27;103273;-68
2023/11/12 14:38:20;;;;;;;3.78;2.20;;;;;;;7.77;65.27;97716.91;5031184;27;103940;-67
2023/11/12 14:40:50;;;;;;;3.05;2.10;;;;;;;7.63;65.35;97712.38;5029554;27;104330;-67
2023/11/12 14:43:19;;;;;;;2.50;1.83;;;;;;;7.69;64.30;97716.97;5030060;27;103239;-67
2023/11/12 14:45:47;;;;;;;2.85;1.88;;;;;;;7.69;64.61;97719.59;5028998;27;103309;-67
2023/11/12 14:48:16;;;;;;;2.95;1.92;;;;;;;7.65;64.67;97723.56;5029816;27;102681;-67
2023/11/12 14:50:46;;;;;;;3.13;2.20;;;;;;;7.62;65.14;97723.91;5028739;27;102760;-67
2023/11/12 14:53:15;;;;;;;3.67;1.90;;;;;;;7.62;65.32;97745.00;5029375;27;103223;-67
2023/11/12 15:09:00;;;;;;;3.00;1.83;;;;;;;7.29;66.35;97743.31;5025339;27;104223;-67
2023/11/12 15:11:33;;;;;;;2.50;1.70;;;;;;;7.29;66.81;97745.94;5029301;27;103171;-67
2023/11/12 15:14:01;;;;;;;6.28;2.28;;;;;;;7.20;67.18;97752.22;5029047;27;102641;-67
2023/11/12 15:16:29;;;;;;;4.25;2.38;;;;;;;7.27;67.71;97753.22;5011410;27;103183;-67
2023/11/12 15:18:57;;;;;;;3.10;2.15;;;;;;;7.14;68.44;97747.66;5011553;27;103574;-67
2023/11/12 15:21:25;;;;;;;4.07;2.30;;;;;;;7.21;68.76;97753.06;5031729;27;103231;-67
2023/11/12 15:23:53;;;;;;;4.65;2.55;;;;;;;7.12;69.50;97760.16;5026739;27;102688;-67
2023/11/12 15:26:22;;;;;;;4.55;1.95;;;;;;;7.10;68.96;97757.72;5029818;27;103879;-67
2023/11/12 15:28:51;;;;;;;3.80;2.10;;;;;;;7.01;69.64;97748.19;5011329;27;103652;-66
2023/11/12 15:31:19;;;;;;;4.25;2.33;;;;;;;6.94;70.73;97752.47;5030991;27;103276;-67
2023/11/12 15:33:47;;;;;;;5.00;2.20;;;;;;;7.01;70.04;97758.72;5032912;27;102653;-67
2023/11/12 15:36:15;;;;;;;4.03;2.13;;;;;;;6.77;71.35;97757.78;5034971;27;104107;-67
2023/11/12 15:43:09;;;;;;;4.22;2.20;;;;;;;6.72;71.94;97764.53;5029328;27;103029;-67
2023/11/12 15:45:38;;;;;;;3.50;2.10;;;;;;;6.71;71.51;97776.88;5035382;27;103075;-67
2023/11/12 15:48:07;;;;;;;5.68;2.08;;;;;;;6.62;72.89;97775.22;5029474;27;103696;-67
2023/11/12 15:50:35;;;;;;;3.65;2.15;;;;;;;6.57;72.85;97777.53;5010829;27;104190;-67
2023/11/12 15:53:04;;;;;;;5.57;2.20;;;;;;;6.56;73.01;97787.22;5035811;27;103168;-67
2023/11/12 15:55:32;;;;;;;3.38;2.05;;;;;;;6.61;73.19;97786.75;5027885;27;102583;-66
2023/11/12 15:58:06;;;;;;;3.88;2.20;;;;;;;6.61;73.83;97794.63;5003867;27;102668;-67
2023/11/12 16:00:36;;;;;;;3.67;2.08;;;;;;;6.45;74.13;97785.75;5008340;27;104336;-66
2023/11/12 16:03:05;;;;;;;3.60;2.25;;;;;;;6.35;74.39;97792.97;5029580;27;103186;-66
2023/11/12 16:05:47;;;;;;;4.18;2.03;;;;;;;6.27;73.52;97792.97;5008126;27;102869;-66
2023/11/12 16:12:29;;;;;;;10.90;6.90;;;;;;;5.96;74.81;97812.78;5035160;27;103048;-66
2023/11/12 16:15:00;;;;;;;2.53;1.83;;;;;;;6.04;73.92;97814.63;5022500;27;104103;-67
2023/11/12 16:17:29;;;;;;;2.42;1.60;;;;;;;5.84;74.28;97819.28;5010049;27;102694;-67
2023/11/12 16:19:58;;;;;;;3.65;2.88;;;;;;;5.74;74.54;97816.81;5028050;27;102656;-67
2023/11/12 16:22:26;;;;;;;2.85;1.92;;;;;;;5.78;74.61;97815.50;5027026;27;103280;-63
2023/11/12 16:24:54;;;;;;;5.97;5.32;;;;;;;5.89;74.37;97818.84;5010424;27;103223;-63
2023/11/12 16:27:22;;;;;;;5.00;4.50;;;;;;;5.87;74.59;97836.56;5027169;27;102725;-62
2023/11/12 16:29:50;;;;;;;4.82;4.10;;;;;;;5.83;75.16;97833.44;5022373;27;103967;-62
2023/11/12 16:32:19;;;;;;;5.22;4.05;;;;;;;5.88;75.53;97831.16;5027728;27;103181;-62
2023/11/12 16:34:50;;;;;;;4.07;3.22;;;;;;;5.78;75.64;97826.03;5027687;27;103164;-62
2023/11/12 16:37:18;;;;;;;4.50;3.92;;;;;;;5.75;75.92;97839.50;5027340;27;102594;-62
2023/11/12 16:39:48;;;;;;;4.18;2.88;;;;;;;5.79;75.89;97837.34;5032528;27;103198;-63
2023/11/12 16:42:17;;;;;;;5.38;2.95;;;;;;;5.86;75.84;97842.81;5027050;27;103193;-62
2023/11/12 16:44:46;;;;;;;4.28;2.50;;;;;;;5.89;75.13;97847.75;5027175;27;103242;-62
2023/11/12 16:47:18;;;;;;;5.00;3.08;;;;;;;5.92;75.37;97847.41;5027254;27;102649;-62
2023/11/12 16:49:52;;;;;;;4.70;2.90;;;;;;;5.92;75.52;97848.25;5011250;27;104316;-63
2023/11/12 16:52:21;;;;;;;4.28;2.58;;;;;;;5.96;75.38;97849.56;5027479;27;103095;-63
2023/11/12 16:54:49;;;;;;;5.05;2.80;;;;;;;6.01;74.91;97851.75;5030491;27;102943;-63
2023/11/12 16:57:17;;;;;;;4.40;2.50;;;;;;;6.02;74.44;97858.66;5027000;27;102604;-63
2023/11/12 16:59:45;;;;;;;4.88;2.20;;;;;;;5.92;73.96;97857.94;5028896;27;102757;-63
2023/11/12 17:02:14;;;;;;;3.75;2.22;;;;;;;5.88;74.46;97869.75;5033232;27;104103;-63
2023/11/12 17:04:42;;;;;;;3.60;1.95;;;;;;;5.90;74.36;97865.16;5025441;27;103179;-63
2023/11/12 17:07:12;;;;;;;4.03;2.00;;;;;;;5.85;74.44;97867.44;5008205;27;102862;-63
2023/11/12 17:09:41;;;;;;;3.45;1.70;;;;;;;5.79;74.41;97864.47;5032228;27;104418;-62
2023/11/12 17:12:12;;;;;;;2.70;1.77;;;;;;;5.92;74.52;97858.75;5030915;27;103267;-62
2023/11/12 17:14:40;;;;;;;3.00;2.08;;;;;;;5.91;75.20;97861.56;5025300;27;103405;-62
2023/11/12 17:17:08;;;;;;;3.30;1.90;;;;;;;5.93;75.22;97864.84;5026814;27;103248;-62
2023/11/12 17:19:36;;;;;;;4.07;2.55;;;;;;;5.99;75.66;97858.97;5030906;27;103851;-62
2023/11/12 17:22:04;;;;;;;3.97;2.38;;;;;;;5.92;75.30;97865.81;5026777;27;103640;-63
2023/11/12 17:24:34;;;;;;;3.40;2.20;;;;;;;5.90;75.79;97858.09;5025487;27;103307;-62
2023/11/12 17:27:02;;;;;;;3.95;2.40;;;;;;;5.94;75.14;97869.13;5026650;27;102600;-62
2023/11/12 17:29:29;;;;;;;4.13;2.50;;;;;;;5.96;75.39;97869.75;5013077;27;103385;-62
2023/11/12 17:31:57;;;;;;;2.85;1.90;;;;;;;5.93;75.46;97872.72;5006116;27;104446;-62
2023/11/12 17:34:25;;;;;;;3.08;1.98;;;;;;;5.92;75.48;97884.22;4984567;27;103266;-62
2023/11/12 17:36:54;;;;;;;4.05;2.47;;;;;;;5.93;75.19;97881.41;5004470;28;102698;-62
2023/11/12 17:39:24;;;;;;;4.32;2.53;;;;;;;5.93;75.78;97885.84;5004371;27;102662;-62
2023/11/12 17:41:54;;;;;;;5.70;2.80;;;;;;;5.95;75.56;97889.97;4995271;28;104806;-63
2023/11/12 17:44:22;;;;;;;3.47;2.40;;;;;;;5.88;76.00;97893.41;4988869;28;103345;-62
2023/11/12 17:46:50;;;;;;;4.43;2.50;;;;;;;5.90;75.90;97896.69;5009812;28;102828;-62
2023/11/12 17:49:18;;;;;;;3.90;2.00;;;;;;;5.88;75.62;97902.13;4991381;28;103102;-62
2023/11/12 17:51:47;;;;;;;3.33;1.77;;;;;;;5.91;75.42;97906.25;4988124;28;103600;-62
2023/11/12 17:54:15;;;;;;;4.10;1.80;;;;;;;5.89;75.96;97905.56;5016750;27;103199;-62
2023/11/12 17:56:44;;;;;;;3.25;2.10;;;;;;;5.90;75.80;97913.28;5027347;27;102586;-62
2023/11/12 17:59:13;;;;;;;3.10;1.85;;;;;;;5.92;75.59;97908.69;5025833;27;103824;-62
2023/11/12 18:01:41;;;;;;;3.08;1.90;;;;;;;5.92;75.40;97903.44;5023462;27;103848;-62
2023/11/12 18:04:11;;;;;;;2.38;1.70;;;;;;;5.94;74.92;97903.28;5009681;27;104275;-62
2023/11/12 18:06:44;;;;;;;2.70;1.60;;;;;;;5.95;74.88;97910.19;5026325;27;102652;-63
2023/11/12 18:09:15;;;;;;;2.25;1.60;;;;;;;5.98;75.16;97909.91;5027979;27;102673;-63
2023/11/12 18:11:46;;;;;;;4.90;2.65;;;;;;;6.00;74.91;97915.84;5007189;27;104502;-63
2023/11/12 18:14:15;;;;;;;4.00;2.38;;;;;;;5.95;74.94;97907.56;5025766;27;103442;-63
2023/11/12 18:16:44;;;;;;;4.03;2.33;;;;;;;5.96;74.89;97911.81;5027809;27;102663;-63
2023/11/12 18:19:15;;;;;;;3.67;2.17;;;;;;;5.90;75.09;97909.84;5022765;27;102618;-63
2023/11/12 18:21:45;;;;;;;2.83;2.03;;;;;;;5.91;75.25;97914.94;5024107;27;103823;-63
2023/11/12 18:24:13;;;;;;;3.75;2.15;;;;;;;5.94;75.45;97908.53;5027661;27;103244;-63
2023/11/12 18:26:42;;;;;;;2.55;1.85;;;;;;;5.89;74.78;97916.06;5027836;27;103065;-63
2023/11/12 18:29:12;;;;;;;5.28;2.40;;;;;;;5.86;74.65;97913.78;5024184;27;102709;-64
2023/11/12 18:31:42;;;;;;;4.22;2.38;;;;;;;5.88;74.93;97914.41;5023455;27;103727;-63
2023/11/12 18:34:11;;;;;;;5.05;2.83;;;;;;;5.88;75.26;97917.03;5028359;27;103101;-64
2023/11/12 18:36:39;;;;;;;3.83;2.72;;;;;;;5.85;75.61;97914.75;5026369;27;102731;-63
2023/11/12 18:47:49;;;;;;;4.05;2.30;;;;;;;5.65;76.18;97938.63;5029210;27;103062;-63
2023/11/12 18:50:19;;;;;;;3.83;2.25;;;;;;;5.62;76.30;97942.38;5028210;27;102713;-63
2023/11/12 18:52:47;;;;;;;4.50;2.55;;;;;;;5.60;76.59;97954.03;5028394;27;102867;-63
2023/11/12 18:55:15;;;;;;;4.75;2.33;;;;;;;5.58;76.82;97950.72;5009181;27;103368;-62
2023/11/12 18:57:44;;;;;;;3.63;2.47;;;;;;;5.58;76.63;97950.72;5030321;27;103232;-61
2023/11/12 19:00:13;;;;;;;4.25;2.63;;;;;;;5.57;76.64;97952.53;5028471;27;103050;-62
2023/11/12 19:02:42;;;;;;;4.63;2.55;;;;;;;5.56;76.84;97947.44;5033239;27;103090;-63
2023/11/12 19:05:12;;;;;;;4.20;2.15;;;;;;;5.59;77.07;97953.22;5032847;27;103435;-62
2023/11/12 19:07:40;;;;;;;4.45;2.28;;;;;;;5.68;77.13;97951.44;5019686;27;103909;-62
2023/11/12 19:10:10;;;;;;;4.13;2.50;;;;;;;5.76;77.20;97969.88;4975443;27;103718;-63
2023/11/12 19:12:40;;;;;;;5.03;3.10;;;;;;;5.76;76.91;97969.88;5032653;27;102767;-62
2023/11/12 19:15:09;;;;;;;4.32;2.90;;;;;;;5.75;76.83;97973.50;5029211;27;103288;-62
2023/11/12 19:17:38;;;;;;;7.55;4.70;;;;;;;5.74;77.34;97976.28;5026972;27;103434;-63
2023/11/12 19:20:07;;;;;;;6.57;3.97;;;;;;;5.76;76.98;97984.81;5012094;27;103162;-62
2023/11/12 19:22:36;;;;;;;5.53;3.55;;;;;;;5.76;77.09;97985.63;5032161;27;102696;-63
2023/11/12 19:25:05;;;;;;;5.78;3.75;;;;;;;5.79;77.34;97974.81;5025101;27;103617;-64
2023/11/12 19:27:33;;;;;;;4.00;2.70;;;;;;;5.82;76.97;97974.50;5033021;27;103230;-63
2023/11/12 19:30:01;;;;;;;4.47;3.20;;;;;;;5.88;77.07;97964.34;5028758;27;102766;-63
2023/11/12 19:32:41;;;;;;;4.78;3.10;;;;;;;5.88;77.18;97967.81;5031499;27;104365;-63
2023/11/12 19:35:10;;;;;;;6.05;3.83;;;;;;;5.86;77.44;97969.78;5030401;27;103326;-62
2023/11/12 19:37:39;;;;;;;6.07;3.80;;;;;;;5.81;77.44;97972.84;5027670;27;104112;-62
2023/11/12 19:40:08;;;;;;;4.90;3.47;;;;;;;5.83;77.17;97972.72;5026166;27;102633;-63
2023/11/12 19:42:38;;;;;;;4.32;3.08;;;;;;;5.88;77.45;97978.34;5028138;27;102660;-62
2023/11/12 19:45:07;;;;;;;4.72;3.30;;;;;;;5.87;76.88;97965.31;5031504;27;103816;-63
2023/11/12 19:47:36;;;;;;;5.03;3.42;;;;;;;5.89;77.90;97971.25;5010475;27;103170;-63
2023/11/12 19:50:06;;;;;;;5.60;3.90;;;;;;;5.89;77.31;97981.78;5030791;27;103004;-63
2023/11/12 19:52:34;;;;;;;5.30;3.33;;;;;;;5.81;77.64;97972.84;5031866;27;102701;-63
2023/11/12 19:55:07;;;;;;;4.60;3.08;;;;;;;5.84;77.82;97978.78;5033340;27;103113;-62
2023/11/12 19:57:39;;;;;;;5.03;3.58;;;;;;;5.89;77.57;97976.53;5008077;27;104210;-62
2023/11/12 20:00:09;;;;;;;7.30;4.87;;;;;;;5.82;77.39;97976.31;5025792;27;103506;-62
2023/11/12 20:15:35;;;;;;;5.70;4.53;;;;;;;5.75;77.62;97985.78;5030654;27;103500;-63
2023/11/12 20:18:09;;;;;;;7.75;4.30;;;;;;;5.52;77.91;97993.38;5026706;27;102866;-63
2023/11/12 20:20:39;;;;;;;5.68;4.75;;;;;;;5.54;78.02;97999.28;5020891;27;104129;-63
2023/11/12 20:23:55;;;;;;;8.60;5.07;;;;;;;5.58;77.79;98000.63;5027825;27;103261;-63
2023/11/12 20:26:52;;;;;;;7.45;6.35;;;;;;;5.60;78.07;97998.69;5047491;22;103337;-63
2023/11/12 20:29:20;;;;;;;7.18;5.97;;;;;;;5.63;78.09;98003.63;5004657;27;104350;-64
2023/11/12 20:31:53;;;;;;;8.40;7.60;;;;;;;5.61;78.03;98008.22;5022395;27;104251;-64
2023/11/12 20:34:22;;;;;;;7.80;7.00;;;;;;;5.59;78.22;98010.16;5029756;27;103939;-64
2023/11/12 20:36:51;;;;;;;8.73;6.82;;;;;;;5.67;78.11;98006.78;5033065;27;102964;-64
2023/11/12 20:39:20;;;;;;;8.45;7.13;;;;;;;5.67;78.26;98002.31;5033762;27;103871;-64
2023/11/12 20:41:52;;;;;;;13.60;12.20;;;;;;;5.68;78.24;98011.84;5031716;27;103282;-64
2023/11/12 20:44:22;;;;;;;11.73;10.63;;;;;;;5.65;78.16;98020.88;5032827;27;103209;-64
2023/11/12 20:46:51;;;;;;;10.82;8.98;;;;;;;5.65;78.56;98022.69;5036714;27;102631;-64
2023/11/12 20:49:19;;;;;;;13.82;12.68;;;;;;;5.66;77.95;98013.84;5030560;27;103828;-64
2023/11/12 20:51:48;;;;;;;11.07;9.93;;;;;;;5.68;78.76;98011.06;5024442;27;103330;-64
2023/11/12 20:54:16;;;;;;;17.23;15.57;;;;;;;5.66;78.49;98000.69;5028645;27;103412;-64
2023/11/12 20:56:45;;;;;;;9.02;8.10;;;;;;;5.66;78.48;97998.06;5033017;27;102926;-64
2023/11/12 20:59:13;;;;;;;7.57;6.65;;;;;;;5.65;78.33;97991.16;5026936;27;102727;-64
2023/11/12 21:01:44;;;;;;;9.18;7.75;;;;;;;5.64;78.47;97992.13;5026070;27;103215;-64
2023/11/12 21:04:14;;;;;;;6.93;5.53;;;;;;;5.60;79.10;97990.78;5030638;27;103041;-64
2023/11/12 21:06:42;;;;;;;7.05;4.90;;;;;;;5.64;78.68;98002.66;5035614;27;102712;-64
2023/11/12 21:09:11;;;;;;;6.63;5.20;;;;;;;5.65;78.63;97993.78;5029141;27;104054;-64
2023/11/12 21:11:41;;;;;;;6.22;5.05;;;;;;;5.71;78.63;98013.34;5028486;27;103318;-64
2023/11/12 21:14:15;;;;;;;6.57;4.75;;;;;;;5.69;78.18;98021.41;5028407;27;103260;-64
2023/11/12 21:16:43;;;;;;;6.25;4.50;;;;;;;5.68;78.50;98014.50;5007632;27;102706;-65
2023/11/12 21:19:13;;;;;;;7.30;4.75;;;;;;;5.72;78.58;98025.53;5032101;27;102750;-64
2023/11/12 21:21:41;;;;;;;6.93;4.43;;;;;;;5.79;78.29;98037.06;5028605;27;102963;-64
2023/11/12 21:24:09;;;;;;;7.68;5.20;;;;;;;5.82;78.42;98037.56;5029535;27;103347;-65
2023/11/12 21:26:39;;;;;;;6.55;5.05;;;;;;;5.84;78.50;98023.47;5030442;27;103493;-64
2023/11/12 21:29:08;;;;;;;5.95;5.03;;;;;;;5.85;78.20;98015.41;5011186;27;102653;-65
2023/11/12 21:31:37;;;;;;;5.93;4.90;;;;;;;5.86;77.80;98021.53;5025174;27;103326;-64
2023/11/12 21:34:05;;;;;;;6.22;4.95;;;;;;;5.84;78.25;98003.25;5008496;27;103376;-65
2023/11/12 21:36:36;;;;;;;6.50;5.07;;;;;;;5.89;77.99;98011.50;5004168;27;102657;-64
2023/11/12 21:39:05;;;;;;;6.85;4.90;;;;;;;5.83;78.00;98012.13;5029430;27;102705;-64
2023/11/12 21:41:37;;;;;;;5.45;4.13;;;;;;;5.88;78.17;98011.66;5027693;27;103189;-64
2023/11/12 21:44:07;;;;;;;6.25;4.55;;;;;;;5.90;78.13;98017.59;5026642;27;103286;-64
2023/11/12 21:46:35;;;;;;;4.78;3.72;;;;;;;5.84;78.01;98008.50;5015084;27;102938;-64
2023/11/12 21:49:04;;;;;;;7.40;4.47;;;;;;;5.88;78.55;98009.88;5031426;27;104198;-64
2023/11/12 21:51:33;;;;;;;6.63;4.80;;;;;;;5.87;77.78;98010.00;5030803;27;103263;-64
2023/11/12 21:54:03;;;;;;;6.22;4.40;;;;;;;5.88;78.44;98016.91;5030508;27;103254;-64